Airfield :
LOGIN :

Register | Disclaimer

   EN    FR    IT 

 










Legend :    VFR   Marginal VFR   IFR   Intensive IFR   Very Intensive IFR
Visi :
Ceiling :
>= 8 km
>= 3000ft
5 to 8 km
1000 to 3000 ft
1500m to 5 km
500 to 1000 ft
800 to 1500m
200 to 500 ft
< 800m
< 200 ft
Symbols :   Thunderstorms  Fog  Heavy snow  Heavy precipitations  Wind > 20 kt
SIGMETs :     Misc.  Thunderstorms  Icing  Turbulence  Mountain Waves  Volcanic Ashes






- Airport Elevation : 302 ft
- IATA code : CGN


EDDK - Cologne Bonn

CURRENT METAR :
  • 290820Z AUTO 33008KT 280V010 9999 -SHRA SCT019 BKN047 FEW///TCU 11/06 Q1016 NOSIG

EXPIRED METARs :
  • 290750Z AUTO 35007KT 310V050 9999 SCT019 BKN045 11/06 Q1016 TEMPO SHRA BKN013TCU
  • 290720Z AUTO 32007KT 290V360 9999 SCT019 BKN032 10/06 Q1016 TEMPO SHRA BKN013TCU
  • 290650Z AUTO 31006KT 240V360 9999 BKN025 11/06 Q1016 TEMPO SHRA BKN013TCU
  • 290620Z AUTO 33003KT 270V010 9999 SCT023 10/06 Q1016 TEMPO SHRA BKN013TCU
  • 290550Z AUTO 36003KT 320V030 9999 FEW016 09/06 Q1016 TEMPO SHRA BKN013TCU

TAF TAF EDDK
Valid from the 29 at 06:00 until the 30 at 12:00 UTC


290500Z 2906/3012 VRB03KT 9999 BKN030
BECMG 2906/2909 31008KT
PROB30
TEMPO 2906/2910 4000 SHRA BKN012TCU
TEMPO 2910/2919 SHRA BKN020CB
PROB30
TEMPO 2913/2917 32015G25KT 4000 TSRA
BECMG 2918/2921 VRB03KT
BECMG 3009/3012 34005KT



MET'MAP, your aeronautical weather chart ! - Copyright ORBIFLY December 2007 - Disclaimer

ORBIFLY MET'MAP TEAM :

Programming & Development : Alexandra Zaïnal
Original concept : Baudouin d'Aumeries
Technical & hardware support : Manuel Goepfert
Assistance : Marc-Olivier Méhu

Contact : metmap@orbifly.com




SOURCES & CREDITS :

   NOAA